createdAt,value
2022-12-24T00:00:35.301Z,30.23
2022-12-24T00:03:38.500Z,31.65
2022-12-24T00:06:40.927Z,21.30
2022-12-24T00:09:43.285Z,62.28
2022-12-24T00:12:45.587Z,64.47
2022-12-24T00:15:48.470Z,63.60
2022-12-24T00:18:50.796Z,64.28
2022-12-24T00:21:53.207Z,44.85
2022-12-24T00:24:55.566Z,61.22
2022-12-24T00:27:58.143Z,60.38
2022-12-24T00:31:00.513Z,65.07
2022-12-24T00:34:02.982Z,66.43
2022-12-24T00:37:06.265Z,45.10
2022-12-24T00:40:09.273Z,38.95
2022-12-24T00:43:11.603Z,35.92
2022-12-24T00:46:13.970Z,40.15
2022-12-24T00:49:16.564Z,43.42
2022-12-24T00:52:18.940Z,55.72
2022-12-24T00:55:21.314Z,76.57
2022-12-24T00:58:23.650Z,73.00
2022-12-24T01:01:26.872Z,53.92
2022-12-24T01:04:48.024Z,61.95
2022-12-24T01:07:50.943Z,40.60
2022-12-24T01:10:53.302Z,118.43
2022-12-24T01:13:56.675Z,59.20
2022-12-24T01:16:58.988Z,47.72
2022-12-24T01:20:01.534Z,53.80
2022-12-24T01:23:03.842Z,83.85
2022-12-24T01:26:06.607Z,88.68
2022-12-24T01:29:08.934Z,77.50
2022-12-24T01:32:11.309Z,49.72
2022-12-24T01:35:13.582Z,39.33
2022-12-24T01:38:16.323Z,54.80
2022-12-24T01:41:40.641Z,53.72
2022-12-24T01:44:45.108Z,71.60
2022-12-24T01:47:48.147Z,58.25
2022-12-24T01:50:52.109Z,45.55
2022-12-24T01:53:59.733Z,61.47
2022-12-24T01:57:10.257Z,47.70
2022-12-24T02:00:16.045Z,48.55
2022-12-24T02:03:19.419Z,48.50
2022-12-24T02:06:22.684Z,35.47
2022-12-24T02:09:25.073Z,37.00
2022-12-24T02:12:29.655Z,115.93
2022-12-24T02:15:57.088Z,85.13
2022-12-24T02:19:23.139Z,51.85
2022-12-24T02:22:40.445Z,61.30
2022-12-24T02:25:51.483Z,38.72
2022-12-24T02:29:06.961Z,54.05
2022-12-24T02:32:18.272Z,48.72
2022-12-24T02:35:42.943Z,41.65
2022-12-24T02:38:50.250Z,35.80
2022-12-24T02:42:06.344Z,34.67
2022-12-24T02:45:15.441Z,43.78
2022-12-24T02:48:18.313Z,35.15
2022-12-24T02:51:24.973Z,33.10
2022-12-24T02:54:27.810Z,35.83
2022-12-24T02:57:48.695Z,37.58
2022-12-24T03:00:53.627Z,41.42
2022-12-24T03:04:16.102Z,47.05
2022-12-24T03:07:30.550Z,38.55
2022-12-24T03:10:48.313Z,37.72
2022-12-24T03:13:51.225Z,40.03
2022-12-24T03:16:53.555Z,33.42
2022-12-24T03:19:56.436Z,33.53
2022-12-24T03:22:58.927Z,35.33
2022-12-24T03:26:02.948Z,63.63
2022-12-24T03:29:09.043Z,57.33
2022-12-24T03:32:11.363Z,45.25
2022-12-24T03:35:13.784Z,37.55
2022-12-24T03:38:16.226Z,38.35
2022-12-24T03:41:18.801Z,32.53
2022-12-24T03:44:21.137Z,29.02
2022-12-24T03:47:23.512Z,33.08
2022-12-24T03:50:26.024Z,37.33
2022-12-24T03:53:28.583Z,29.75
2022-12-24T03:56:31.044Z,28.23
2022-12-24T03:59:33.425Z,26.30
2022-12-24T04:02:35.815Z,27.23
2022-12-24T04:05:38.236Z,35.03
2022-12-24T04:08:41.572Z,30.30
2022-12-24T04:11:43.911Z,23.67
2022-12-24T04:14:46.184Z,31.95
2022-12-24T04:17:48.432Z,28.88
2022-12-24T04:20:50.729Z,30.77
2022-12-24T04:23:53.143Z,33.45
2022-12-24T04:26:55.435Z,31.67
2022-12-24T04:29:58.149Z,34.08
2022-12-24T04:33:00.500Z,30.80
2022-12-24T04:36:04.609Z,36.80
2022-12-24T04:39:07.003Z,31.70
2022-12-24T04:42:09.311Z,34.85
2022-12-24T04:45:11.869Z,39.88
2022-12-24T04:48:14.189Z,34.17
2022-12-24T04:51:17.950Z,31.52
2022-12-24T04:57:22.469Z,29.27
2022-12-24T05:00:24.920Z,32.45
2022-12-24T05:03:28.021Z,30.20
2022-12-24T05:06:32.375Z,25.27
2022-12-24T05:09:34.892Z,36.88
2022-12-24T05:12:37.450Z,33.17
2022-12-24T05:15:39.717Z,27.73
2022-12-24T05:18:42.255Z,27.45
2022-12-24T05:21:44.550Z,23.05
2022-12-24T05:25:05.902Z,30.38
2022-12-24T05:28:08.347Z,32.78
2022-12-24T05:31:10.665Z,29.08
2022-12-24T05:34:14.552Z,25.13
2022-12-24T05:37:16.815Z,25.48
2022-12-24T05:40:19.189Z,23.63
2022-12-24T05:43:21.558Z,24.55
2022-12-24T05:46:25.605Z,24.48
2022-12-24T05:49:29.016Z,22.73
2022-12-24T05:52:31.375Z,17.00
2022-12-24T05:55:34.225Z,25.42
2022-12-24T05:58:36.973Z,23.98
2022-12-24T06:01:39.539Z,21.73
2022-12-24T06:04:41.868Z,27.83
2022-12-24T06:07:44.385Z,20.48
2022-12-24T06:10:46.739Z,28.58
2022-12-24T06:13:49.132Z,32.45
2022-12-24T06:16:52.098Z,24.95
2022-12-24T06:19:54.479Z,26.90
2022-12-24T06:22:56.796Z,27.33
2022-12-24T06:26:03.528Z,23.95
2022-12-24T06:29:06.806Z,20.50
2022-12-24T06:32:09.113Z,21.63
2022-12-24T06:35:11.564Z,22.48
2022-12-24T06:38:14.782Z,29.20
2022-12-24T06:41:17.916Z,32.08
2022-12-24T06:44:20.414Z,26.85
2022-12-24T06:47:22.785Z,29.27
2022-12-24T06:50:25.272Z,33.47
2022-12-24T06:53:27.590Z,30.23
2022-12-24T06:56:29.894Z,46.92
2022-12-24T06:59:32.289Z,43.33
2022-12-24T07:02:34.781Z,41.40
2022-12-24T07:05:37.298Z,34.47
2022-12-24T07:08:39.709Z,35.83
2022-12-24T07:11:42.181Z,46.25
2022-12-24T07:14:44.620Z,44.92
2022-12-24T07:17:47.170Z,39.88
2022-12-24T07:20:49.529Z,41.58
2022-12-24T07:23:51.853Z,41.63
2022-12-24T07:26:54.320Z,38.40
2022-12-24T07:29:56.609Z,39.80
2022-12-24T07:32:59.286Z,42.90
2022-12-24T07:36:07.168Z,43.33
2022-12-24T07:39:09.509Z,37.58
2022-12-24T07:42:11.862Z,61.72
2022-12-24T07:45:15.398Z,59.30
2022-12-24T07:48:17.821Z,55.00
2022-12-24T07:51:20.111Z,49.40
2022-12-24T07:54:22.610Z,51.53
2022-12-24T07:57:24.981Z,45.35
2022-12-24T08:00:27.397Z,42.83
2022-12-24T08:03:30.058Z,38.65
2022-12-24T08:06:32.583Z,32.25
2022-12-24T08:09:38.717Z,40.60
2022-12-24T08:12:41.026Z,34.50
2022-12-24T08:15:43.501Z,40.25
2022-12-24T08:18:45.851Z,53.47
2022-12-24T08:21:48.244Z,56.25
2022-12-24T08:24:50.564Z,56.50
2022-12-24T08:27:52.942Z,42.88
2022-12-24T08:30:55.625Z,30.95
2022-12-24T08:33:57.952Z,31.85
2022-12-24T08:37:00.287Z,33.08
2022-12-24T08:40:03.664Z,27.52
2022-12-24T08:43:06.049Z,33.38
2022-12-24T08:46:08.453Z,35.92
2022-12-24T08:49:10.804Z,35.22
2022-12-24T08:52:13.082Z,27.73
2022-12-24T08:55:15.454Z,36.03
2022-12-24T08:58:17.908Z,38.30
2022-12-24T09:01:21.577Z,31.85
2022-12-24T09:04:24.011Z,30.92
2022-12-24T09:07:26.440Z,30.67
2022-12-24T09:10:29.603Z,33.80
2022-12-24T09:13:32.446Z,35.85
2022-12-24T09:16:34.784Z,31.27
2022-12-24T09:19:37.265Z,34.45
2022-12-24T09:22:40.527Z,35.10
2022-12-24T09:25:43.572Z,29.17
2022-12-24T09:28:46.370Z,29.90
2022-12-24T09:31:50.158Z,38.42
2022-12-24T09:34:52.587Z,32.80
2022-12-24T09:38:04.532Z,36.63
2022-12-24T09:41:25.414Z,36.67
2022-12-24T09:44:45.574Z,36.72
2022-12-24T09:47:51.549Z,32.53
2022-12-24T09:51:19.753Z,35.53
2022-12-24T09:54:26.641Z,35.05
2022-12-24T09:57:33.089Z,35.67
2022-12-24T10:00:38.410Z,27.90
2022-12-24T10:03:41.359Z,34.70
2022-12-24T10:07:12.649Z,32.58
2022-12-24T10:10:32.227Z,39.60
2022-12-24T10:13:53.391Z,38.65
2022-12-24T10:17:18.689Z,36.17
2022-12-24T10:20:23.819Z,22.25
2022-12-24T10:23:51.722Z,26.13
2022-12-24T10:27:03.899Z,26.27
2022-12-24T10:30:19.976Z,27.20
2022-12-24T10:33:50.078Z,26.45
2022-12-24T10:36:53.716Z,29.25
2022-12-24T10:39:57.014Z,25.33
2022-12-24T10:42:59.486Z,34.85
2022-12-24T10:46:04.359Z,33.45
2022-12-24T10:49:08.838Z,36.35
2022-12-24T10:52:14.687Z,26.95
2022-12-24T10:55:19.713Z,30.83
2022-12-24T10:58:22.426Z,31.23
2022-12-24T11:01:48.156Z,33.58
2022-12-24T11:04:51.096Z,33.97
2022-12-24T11:08:07.820Z,40.53
2022-12-24T11:11:17.642Z,63.08
2022-12-24T11:14:23.654Z,44.17
2022-12-24T11:17:26.043Z,58.58
2022-12-24T11:20:30.161Z,34.03
2022-12-24T11:23:33.651Z,32.70
2022-12-24T11:26:36.307Z,42.97
2022-12-24T11:29:41.181Z,46.40
2022-12-24T11:32:51.802Z,50.22
2022-12-24T11:36:01.468Z,52.83
2022-12-24T11:39:08.173Z,48.92
2022-12-24T11:42:37.614Z,51.25
2022-12-24T11:45:42.927Z,38.50
2022-12-24T11:48:46.192Z,39.30
2022-12-24T11:52:12.924Z,36.55
2022-12-24T11:55:34.686Z,37.10
2022-12-24T11:58:39.667Z,33.55
2022-12-24T12:02:18.375Z,28.77
2022-12-24T12:05:27.211Z,33.95
2022-12-24T12:08:30.323Z,36.08
2022-12-24T12:11:34.811Z,26.53
2022-12-24T12:14:44.995Z,35.17
2022-12-24T12:17:51.857Z,32.45
2022-12-24T12:21:01.632Z,38.28
2022-12-24T12:24:15.607Z,27.55
2022-12-24T12:27:32.351Z,28.50
2022-12-24T12:30:36.988Z,29.60
2022-12-24T12:36:50.531Z,31.80
2022-12-24T12:39:53.118Z,26.48
2022-12-24T12:43:42.181Z,24.80
2022-12-24T12:47:17.205Z,30.33
2022-12-24T12:50:39.916Z,27.27
2022-12-24T12:53:54.848Z,29.60
2022-12-24T12:57:02.947Z,28.98
2022-12-24T13:00:11.298Z,27.95
2022-12-24T13:03:50.395Z,25.63
2022-12-24T13:06:58.567Z,26.85
2022-12-24T13:10:31.685Z,28.75
2022-12-24T13:13:47.688Z,27.08
2022-12-24T13:17:18.346Z,27.17
2022-12-24T13:20:25.142Z,24.33
2022-12-24T13:23:28.600Z,26.05
2022-12-24T13:26:30.936Z,25.50
2022-12-24T13:29:36.177Z,31.77
2022-12-24T13:32:39.798Z,82.75
2022-12-24T13:35:59.726Z,104.47
2022-12-24T13:39:02.023Z,268.50
2022-12-24T13:42:04.374Z,110.38
2022-12-24T13:45:32.923Z,89.57
2022-12-24T13:48:35.815Z,199.95
2022-12-24T13:51:39.389Z,230.32
2022-12-24T13:54:59.925Z,178.70
2022-12-24T13:58:08.015Z,229.55
2022-12-24T14:01:13.523Z,382.85
2022-12-24T14:04:48.151Z,408.42
2022-12-24T14:07:51.289Z,101.18
2022-12-24T14:11:13.522Z,31.48
2022-12-24T14:14:28.464Z,130.23
2022-12-24T14:17:31.236Z,174.25
2022-12-24T14:20:34.081Z,60.60
2022-12-24T14:24:03.367Z,247.02
2022-12-24T14:27:18.530Z,228.18
2022-12-24T14:30:23.032Z,369.73
2022-12-24T14:33:32.950Z,166.90
2022-12-24T14:36:36.525Z,50.25
2022-12-24T14:39:43.209Z,84.35
2022-12-24T14:43:30.043Z,147.35
2022-12-24T14:46:45.950Z,220.90
2022-12-24T14:50:05.339Z,302.27
2022-12-24T14:53:52.364Z,146.60
2022-12-24T14:57:13.137Z,266.00
2022-12-24T15:00:27.299Z,119.07
2022-12-24T15:06:36.438Z,131.48
2022-12-24T15:09:41.002Z,71.60
2022-12-24T15:12:43.692Z,49.78
2022-12-24T15:15:52.290Z,46.83
2022-12-24T15:18:58.444Z,42.97
2022-12-24T15:22:02.224Z,42.78
2022-12-24T15:25:04.728Z,39.92
2022-12-24T15:28:18.437Z,35.45
2022-12-24T15:31:23.953Z,38.10
2022-12-24T15:34:37.387Z,29.90
2022-12-24T15:37:42.560Z,30.83
2022-12-24T15:40:49.840Z,31.67
2022-12-24T15:43:54.034Z,32.40
2022-12-24T15:47:02.619Z,33.17
2022-12-24T15:50:23.383Z,31.33
2022-12-24T15:53:31.800Z,43.50
2022-12-24T15:56:39.258Z,34.45
2022-12-24T15:59:41.982Z,33.13
2022-12-24T16:02:45.969Z,36.05
2022-12-24T16:06:00.461Z,36.50
2022-12-24T16:09:31.885Z,54.15
2022-12-24T16:12:36.079Z,38.88
2022-12-24T16:15:45.861Z,37.80
2022-12-24T16:19:01.308Z,32.70
2022-12-24T16:22:24.336Z,38.22
2022-12-24T16:25:28.820Z,31.13
2022-12-24T16:28:32.591Z,34.42
2022-12-24T16:31:38.723Z,38.40
2022-12-24T16:34:41.237Z,33.38
2022-12-24T16:37:44.073Z,41.10
2022-12-24T16:40:47.094Z,37.63
2022-12-24T16:43:49.579Z,24.02
2022-12-24T16:46:53.645Z,29.40
2022-12-24T16:49:57.263Z,36.63
2022-12-24T16:52:59.646Z,123.97
2022-12-24T16:56:02.990Z,63.95
2022-12-24T16:59:06.027Z,33.10
2022-12-24T17:02:14.393Z,82.13
2022-12-24T17:05:17.671Z,123.00
2022-12-24T17:08:20.090Z,141.32
2022-12-24T17:11:25.663Z,209.80
2022-12-24T17:14:28.269Z,219.13
2022-12-24T17:17:32.085Z,84.63
2022-12-24T17:20:34.711Z,116.32
2022-12-24T17:23:37.338Z,185.00
2022-12-24T17:26:39.626Z,168.77
2022-12-24T17:29:42.017Z,71.28
2022-12-24T17:32:44.378Z,58.40
2022-12-24T17:35:48.617Z,68.05
2022-12-24T17:38:51.023Z,86.25
2022-12-24T17:41:53.481Z,110.63
2022-12-24T17:44:56.183Z,61.92
2022-12-24T17:47:58.579Z,60.15
2022-12-24T17:51:09.280Z,110.25
2022-12-24T17:54:12.395Z,65.00
2022-12-24T17:57:14.888Z,75.15
2022-12-24T18:00:18.417Z,61.83
2022-12-24T18:03:21.255Z,56.33
2022-12-24T18:06:24.204Z,54.67
2022-12-24T18:09:26.788Z,41.50
2022-12-24T18:12:29.303Z,53.10
2022-12-24T18:15:35.718Z,51.10
2022-12-24T18:18:38.683Z,58.75
2022-12-24T18:21:41.251Z,52.67
2022-12-24T18:24:43.698Z,48.80
2022-12-24T18:27:46.019Z,43.20
2022-12-24T18:30:58.456Z,60.00
2022-12-24T18:34:02.678Z,51.22
2022-12-24T18:37:05.814Z,52.70
2022-12-24T18:40:09.574Z,60.10
2022-12-24T18:46:17.241Z,75.57
2022-12-24T18:49:19.619Z,71.07
2022-12-24T18:52:22.979Z,105.38
2022-12-24T18:55:25.758Z,83.45
2022-12-24T18:58:28.094Z,43.92
2022-12-24T19:01:33.209Z,71.82
2022-12-24T19:04:36.645Z,53.75
2022-12-24T19:07:39.161Z,37.95
2022-12-24T19:10:41.531Z,53.47
2022-12-24T19:13:48.691Z,46.47
2022-12-24T19:16:51.475Z,45.42
2022-12-24T19:19:54.105Z,39.70
2022-12-24T19:22:57.116Z,52.50
2022-12-24T19:25:59.983Z,46.07
2022-12-24T19:29:04.009Z,49.30
2022-12-24T19:32:06.672Z,36.85
2022-12-24T19:35:09.849Z,37.65
2022-12-24T19:38:12.343Z,38.87
2022-12-24T19:41:17.827Z,51.35
2022-12-24T19:44:20.205Z,41.15
2022-12-24T19:47:22.700Z,66.22
2022-12-24T19:50:25.089Z,73.50
2022-12-24T19:53:28.225Z,42.80
2022-12-24T19:56:32.688Z,46.53
2022-12-24T19:59:35.688Z,42.08
2022-12-24T20:02:38.180Z,51.85
2022-12-24T20:05:41.685Z,75.38
2022-12-24T20:08:44.505Z,80.90
2022-12-24T20:11:47.016Z,70.88
2022-12-24T20:14:49.348Z,67.13
2022-12-24T20:17:52.430Z,42.88
2022-12-24T20:20:59.504Z,42.53
2022-12-24T20:24:01.903Z,349.55
2022-12-24T20:27:04.296Z,671.35
2022-12-24T20:30:07.309Z,58.72
2022-12-24T20:33:09.797Z,58.72
2022-12-24T20:36:13.420Z,67.13
2022-12-24T20:39:17.120Z,92.75
2022-12-24T20:42:20.021Z,49.10
2022-12-24T20:45:22.398Z,74.60
2022-12-24T20:48:25.096Z,45.58
2022-12-24T20:51:28.649Z,41.05
2022-12-24T20:54:30.997Z,39.53
2022-12-24T20:57:36.417Z,40.72
2022-12-24T21:00:39.556Z,43.20
2022-12-24T21:03:41.887Z,53.47
2022-12-24T21:06:44.688Z,59.90
2022-12-24T21:09:47.171Z,55.92
2022-12-24T21:12:49.986Z,47.72
2022-12-24T21:15:52.359Z,71.50
2022-12-24T21:18:54.919Z,54.67
2022-12-24T21:21:57.244Z,49.63
2022-12-24T21:24:59.665Z,76.90
2022-12-24T21:28:02.155Z,69.85
2022-12-24T21:31:10.431Z,53.95
2022-12-24T21:34:13.053Z,78.03
2022-12-24T21:37:15.437Z,77.07
2022-12-24T21:40:17.946Z,51.30
2022-12-24T21:43:20.332Z,77.70
2022-12-24T21:46:26.117Z,55.38
2022-12-24T21:49:47.302Z,60.05
2022-12-24T21:53:09.772Z,64.80
2022-12-24T21:56:12.504Z,49.67
2022-12-24T21:59:15.234Z,58.20
2022-12-24T22:02:18.614Z,57.53
2022-12-24T22:05:21.732Z,49.33
2022-12-24T22:08:42.900Z,42.75
2022-12-24T22:11:53.790Z,48.65
2022-12-24T22:14:57.220Z,40.85
2022-12-24T22:18:00.074Z,44.20
2022-12-24T22:21:03.390Z,37.95
2022-12-24T22:24:06.338Z,35.85
2022-12-24T22:27:08.751Z,38.10
2022-12-24T22:30:12.176Z,36.95
2022-12-24T22:33:14.755Z,39.10
2022-12-24T22:36:17.125Z,38.20
2022-12-24T22:39:19.577Z,42.75
2022-12-24T22:42:22.125Z,42.47
2022-12-24T22:45:24.914Z,46.35
2022-12-24T22:48:27.347Z,52.33
2022-12-24T22:51:30.098Z,42.05
2022-12-24T22:54:33.097Z,41.85
2022-12-24T22:57:35.492Z,31.70
2022-12-24T23:00:43.818Z,43.83
2022-12-24T23:03:46.743Z,50.25
2022-12-24T23:06:49.670Z,50.45
2022-12-24T23:09:52.072Z,53.38
2022-12-24T23:13:15.399Z,48.15
2022-12-24T23:16:17.900Z,36.10
2022-12-24T23:19:20.377Z,49.80
2022-12-24T23:22:22.667Z,44.15
2022-12-24T23:25:25.157Z,46.10
2022-12-24T23:28:27.547Z,46.20
2022-12-24T23:31:30.960Z,43.10
2022-12-24T23:34:33.393Z,56.17
2022-12-24T23:37:35.742Z,61.20
2022-12-24T23:40:38.023Z,50.33
2022-12-24T23:43:41.644Z,48.90
2022-12-24T23:46:44.120Z,57.13
2022-12-24T23:49:46.533Z,60.42
2022-12-24T23:52:48.878Z,51.38
2022-12-24T23:55:51.487Z,46.67
2022-12-24T23:58:53.865Z,46.55
